Time;durP1;ratioP1;P1;durP2;ratioP2;P2;SDS_P1;SDS_P2;PMS_P1;PMS_P2;Temp;Humidity;BMP_temperature;BMP_pressure;BME280_temperature;BME280_humidity;BME280_pressure;Samples;Min_cycle;Max_cycle;Signal;HPM_P1;HPM_P2
2021/11/03 00:01:28;;;;;;;35.15;27.37;;;;;;;8.07;91.05;96861.08;1849197;77;21037;-61
2021/11/03 00:03:55;;;;;;;37.70;27.90;;;;;;;8.07;91.17;96872.53;1849271;77;21403;-59
2021/11/03 00:06:22;;;;;;;39.38;28.45;;;;;;;8.06;91.30;96868.28;1849350;77;20916;-58
2021/11/03 00:08:49;;;;;;;43.20;29.67;;;;;;;8.06;91.45;96860.28;1849181;77;20880;-60
2021/11/03 00:11:16;;;;;;;36.83;27.10;;;;;;;8.06;91.49;96864.28;1849377;77;20875;-59
2021/11/03 00:13:43;;;;;;;35.45;27.02;;;;;;;8.08;91.53;96871.43;1825963;77;21238;-61
2021/11/03 00:16:10;;;;;;;39.55;26.57;;;;;;;8.11;91.58;96870.84;1849500;77;20916;-60
2021/11/03 00:18:38;;;;;;;36.85;26.73;;;;;;;8.13;91.66;96876.66;1849213;77;21529;-61
2021/11/03 00:21:05;;;;;;;38.73;27.95;;;;;;;8.13;91.75;96882.53;1849235;77;20911;-62
2021/11/03 00:23:32;;;;;;;37.70;28.45;;;;;;;8.13;91.82;96897.20;1849219;77;20904;-59
2021/11/03 00:25:59;;;;;;;39.03;26.90;;;;;;;8.08;91.92;96894.10;1849316;77;21870;-62
2021/11/03 00:28:26;;;;;;;39.30;28.42;;;;;;;8.08;92.02;96891.97;1849189;77;20863;-59
2021/11/03 00:30:55;;;;;;;44.45;31.65;;;;;;;8.11;92.17;96895.38;1849213;77;21419;-59
2021/11/03 00:33:23;;;;;;;49.58;37.78;;;;;;;8.17;92.33;96895.53;1849105;77;20951;-61
2021/11/03 00:35:51;;;;;;;49.33;38.48;;;;;;;8.23;92.31;96900.44;1849504;77;20927;-61
2021/11/03 00:38:19;;;;;;;44.58;33.58;;;;;;;8.27;92.31;96903.31;1849128;77;21113;-61
2021/11/03 00:40:47;;;;;;;44.20;32.93;;;;;;;8.29;92.24;96899.03;1849121;77;20849;-60
2021/11/03 00:43:14;;;;;;;43.83;32.08;;;;;;;8.32;92.19;96901.08;1849085;77;20884;-61
2021/11/03 00:45:44;;;;;;;46.40;32.28;;;;;;;8.32;92.16;96909.08;1849090;77;20876;-58
2021/11/03 00:48:11;;;;;;;42.53;31.93;;;;;;;8.29;92.22;96907.03;1849252;77;20884;-58
2021/11/03 00:50:38;;;;;;;43.63;32.15;;;;;;;8.29;92.42;96907.80;1849546;77;21107;-58
2021/11/03 00:53:05;;;;;;;39.50;31.10;;;;;;;8.31;92.42;96900.84;1849055;77;20899;-60
2021/11/03 00:55:34;;;;;;;43.78;30.20;;;;;;;8.34;92.49;96905.59;1849157;77;20903;-59
2021/11/03 00:58:00;;;;;;;40.12;29.23;;;;;;;8.35;92.40;96903.15;1849070;77;21342;-59
2021/11/03 01:00:28;;;;;;;38.85;29.05;;;;;;;8.35;92.45;96903.15;1849229;77;20860;-62
2021/11/03 01:02:55;;;;;;;38.58;31.25;;;;;;;8.33;92.45;96904.00;1849380;77;21360;-59
2021/11/03 01:05:23;;;;;;;48.90;33.90;;;;;;;8.33;92.56;96894.13;1849041;77;20912;-61
2021/11/03 01:07:50;;;;;;;42.23;32.85;;;;;;;8.35;92.62;96899.94;1849290;77;20900;-59
2021/11/03 01:10:18;;;;;;;51.28;33.92;;;;;;;8.36;92.65;96903.41;1849203;77;20907;-61
2021/11/03 01:12:44;;;;;;;39.92;30.45;;;;;;;8.34;92.60;96905.59;1849237;77;20895;-60
2021/11/03 01:15:15;;;;;;;50.25;35.15;;;;;;;8.29;92.70;96911.80;1849139;77;21030;-56
2021/11/03 01:17:42;;;;;;;43.52;31.80;;;;;;;8.23;92.83;96911.11;1849286;77;20906;-58
2021/11/03 01:20:10;;;;;;;40.33;30.48;;;;;;;8.22;92.96;96914.86;1849064;77;20943;-59
2021/11/03 01:22:37;;;;;;;48.78;34.40;;;;;;;8.23;93.08;96918.32;1849268;77;20900;-59
2021/11/03 01:25:05;;;;;;;41.60;32.40;;;;;;;8.24;93.14;96919.34;1849200;77;20860;-60
2021/11/03 01:27:32;;;;;;;41.63;30.17;;;;;;;8.30;93.22;96916.59;1849338;77;20955;-60
2021/11/03 01:30:00;;;;;;;43.33;30.10;;;;;;;8.31;93.13;96916.86;1849083;77;20935;-62
2021/11/03 01:32:29;;;;;;;42.27;32.35;;;;;;;8.32;93.17;96933.89;1849266;77;20967;-58
2021/11/03 01:34:56;;;;;;;40.48;31.07;;;;;;;8.27;93.17;96935.90;1849055;77;20912;-59
2021/11/03 01:37:23;;;;;;;37.28;27.70;;;;;;;8.21;93.15;96939.97;1849366;77;20833;-57
2021/11/03 01:39:50;;;;;;;33.95;22.95;;;;;;;8.15;93.01;96937.16;1849197;77;21111;-58
2021/11/03 01:42:16;;;;;;;34.13;22.75;;;;;;;8.11;92.63;96937.52;1849322;77;20853;-59
2021/11/03 01:44:43;;;;;;;32.80;24.05;;;;;;;8.05;92.37;96942.72;1849086;77;20872;-59
2021/11/03 01:47:59;;;;;;;32.60;22.25;;;;;;;8.02;92.19;96944.64;1849167;77;20992;-61
2021/11/03 01:50:49;;;;;;;24.82;20.10;;;;;;;8.02;91.82;96944.64;1849129;77;20861;-57
2021/11/03 01:53:29;;;;;;;25.97;19.73;;;;;;;7.98;91.36;96943.67;1849181;77;21070;-59
2021/11/03 01:56:00;;;;;;;26.45;19.50;;;;;;;7.95;90.99;96941.59;1849118;77;20832;-57
2021/11/03 01:58:34;;;;;;;24.32;17.98;;;;;;;7.91;91.15;96948.62;1849089;77;20975;-60
2021/11/03 02:01:01;;;;;;;21.95;18.07;;;;;;;7.90;90.98;96952.36;1848954;77;21411;-61
2021/11/03 02:03:28;;;;;;;20.65;16.82;;;;;;;7.92;90.80;96954.72;1849033;77;21001;-60
2021/11/03 02:06:01;;;;;;;20.23;16.67;;;;;;;7.90;90.08;96956.36;1849070;77;21788;-59
2021/11/03 02:08:30;;;;;;;22.58;16.75;;;;;;;7.84;89.42;96956.77;1849303;77;20986;-57
2021/11/03 02:10:57;;;;;;;19.65;14.78;;;;;;;7.79;89.37;96961.66;1826016;77;20832;-57
2021/11/03 02:13:23;;;;;;;18.98;15.78;;;;;;;7.78;89.34;96956.06;1849040;77;20896;-57
2021/11/03 02:15:51;;;;;;;22.55;15.93;;;;;;;7.78;89.22;96960.06;1849046;77;20927;-60
2021/11/03 02:20:53;;;;;;;18.73;16.05;;;;;;;7.78;88.93;96952.06;1849065;77;20857;-61
2021/11/03 02:23:34;;;;;;;22.13;16.75;;;;;;;7.80;88.93;96953.89;1849473;77;20955;-58
2021/11/03 02:26:23;;;;;;;17.37;15.20;;;;;;;7.81;88.38;96955.48;1830851;77;20904;-60
2021/11/03 02:28:50;;;;;;;23.75;14.98;;;;;;;7.82;88.39;96961.04;1849445;77;21378;-56
2021/11/03 02:31:41;;;;;;;17.75;15.15;;;;;;;7.83;88.38;96965.30;1849154;77;21098;-57
2021/11/03 02:34:11;;;;;;;21.82;16.57;;;;;;;7.79;88.07;96970.98;1849284;77;21522;-60
2021/11/03 02:36:59;;;;;;;22.75;16.32;;;;;;;7.75;88.02;96972.64;1849027;77;20924;-60
2021/11/03 02:39:43;;;;;;;21.30;16.62;;;;;;;7.76;88.07;96980.10;1849319;77;20877;-57
2021/11/03 02:42:10;;;;;;;19.37;15.48;;;;;;;7.74;88.04;96977.74;1847843;77;20995;-59
2021/11/03 02:44:37;;;;;;;19.17;15.95;;;;;;;7.74;88.06;96980.41;1849294;77;21066;-58
2021/11/03 02:47:05;;;;;;;20.32;15.83;;;;;;;7.75;88.18;96984.64;1848968;77;20864;-61
2021/11/03 02:49:38;;;;;;;23.20;17.15;;;;;;;7.78;88.05;96973.39;1849098;77;20955;-60
2021/11/03 02:52:25;;;;;;;17.92;15.43;;;;;;;7.80;88.17;96981.08;1849002;77;20908;-59
2021/11/03 02:54:52;;;;;;;18.67;15.55;;;;;;;7.84;88.07;96986.89;1849059;77;21463;-58
2021/11/03 02:57:19;;;;;;;19.77;15.65;;;;;;;7.84;87.90;96988.22;1849117;77;21148;-58
2021/11/03 02:59:46;;;;;;;20.55;13.93;;;;;;;7.87;88.07;96994.27;1849260;77;20825;-59
2021/11/03 03:02:13;;;;;;;19.10;15.28;;;;;;;7.88;87.51;96995.86;1849227;77;20908;-61
2021/11/03 03:04:45;;;;;;;18.40;14.98;;;;;;;7.87;87.39;97008.14;1849272;77;21435;-61
2021/11/03 03:07:13;;;;;;;18.65;15.08;;;;;;;7.89;87.48;97010.75;1848575;77;20915;-60
2021/11/03 03:09:40;;;;;;;23.73;17.45;;;;;;;7.88;87.46;97013.19;1849120;77;22223;-59
2021/11/03 03:12:13;;;;;;;21.57;15.75;;;;;;;7.86;87.37;97016.70;1848926;77;20947;-61
2021/11/03 03:14:42;;;;;;;18.20;14.20;;;;;;;7.86;87.43;97028.70;1849286;77;21431;-61
2021/11/03 03:17:10;;;;;;;20.05;15.35;;;;;;;7.84;87.22;97028.20;1848980;77;20967;-58
2021/11/03 03:19:38;;;;;;;19.40;16.50;;;;;;;7.83;87.34;97042.61;1849525;77;20876;-60
2021/11/03 03:22:05;;;;;;;19.10;16.20;;;;;;;7.85;87.46;97043.10;1849113;77;21748;-62
2021/11/03 03:24:31;;;;;;;19.35;16.60;;;;;;;7.88;87.44;97039.85;1849020;77;20904;-61
2021/11/03 03:26:58;;;;;;;22.07;16.42;;;;;;;7.89;87.40;97045.42;1849000;77;20872;-59
2021/11/03 03:29:25;;;;;;;20.72;16.02;;;;;;;7.92;87.34;97048.83;1849218;77;21340;-57
2021/11/03 03:31:51;;;;;;;21.95;15.20;;;;;;;7.92;87.25;97048.83;1849051;77;20908;-59
2021/11/03 03:34:23;;;;;;;19.98;15.58;;;;;;;7.92;87.24;97060.03;1849105;77;21106;-58
2021/11/03 03:36:51;;;;;;;20.17;16.35;;;;;;;7.90;87.02;97057.67;1848955;77;20908;-58
2021/11/03 03:39:20;;;;;;;19.80;17.00;;;;;;;7.86;87.01;97056.69;1849101;77;20919;-61
2021/11/03 03:41:52;;;;;;;19.92;17.42;;;;;;;7.84;87.19;97065.53;1849000;77;20880;-58
2021/11/03 03:44:19;;;;;;;21.87;17.45;;;;;;;7.83;87.28;97065.80;1849309;77;21006;-58
2021/11/03 03:46:46;;;;;;;18.55;14.90;;;;;;;7.78;87.29;97070.69;1838954;77;22212;-58
2021/11/03 03:49:13;;;;;;;19.42;14.35;;;;;;;7.74;87.21;97071.04;1838536;78;21427;-58
2021/11/03 03:51:40;;;;;;;19.80;13.98;;;;;;;7.70;87.29;97071.35;1838520;78;20908;-59
2021/11/03 03:54:07;;;;;;;21.00;15.43;;;;;;;7.72;87.39;97075.88;1838566;78;20880;-60
2021/11/03 03:56:34;;;;;;;18.20;14.90;;;;;;;7.73;87.51;97080.11;1838664;78;21368;-60
2021/11/03 03:59:01;;;;;;;17.60;14.55;;;;;;;7.74;87.50;97089.70;1838516;78;21116;-60
2021/11/03 04:01:28;;;;;;;19.45;14.70;;;;;;;7.72;87.36;97089.20;1838551;78;20959;-58
2021/11/03 04:03:58;;;;;;;20.32;14.60;;;;;;;7.69;87.36;97091.11;1838483;77;20908;-60
2021/11/03 04:06:25;;;;;;;22.00;15.80;;;;;;;7.66;87.49;97095.69;1838476;78;20881;-61
2021/11/03 04:08:51;;;;;;;19.40;15.75;;;;;;;7.68;87.62;97096.18;1838938;78;20932;-56
2021/11/03 04:11:18;;;;;;;19.23;14.95;;;;;;;7.71;87.71;97103.60;1838601;78;21136;-58
2021/11/03 04:13:47;;;;;;;21.80;14.38;;;;;;;7.68;87.79;97101.52;1838505;78;20897;-58
2021/11/03 04:16:13;;;;;;;18.60;13.70;;;;;;;7.69;87.80;97104.44;1838815;78;21424;-62
2021/11/03 04:18:40;;;;;;;17.45;14.03;;;;;;;7.68;87.61;97105.51;1838481;78;20967;-61
2021/11/03 04:21:07;;;;;;;17.07;13.70;;;;;;;7.66;87.56;97109.55;1838747;78;21372;-59
2021/11/03 04:23:35;;;;;;;18.02;14.10;;;;;;;7.64;87.66;97116.52;1838570;78;21114;-59
2021/11/03 04:26:02;;;;;;;18.02;14.83;;;;;;;7.67;87.79;97121.27;1838436;78;20872;-60
2021/11/03 04:28:30;;;;;;;20.92;14.47;;;;;;;7.72;87.86;97119.06;1838470;78;20873;-58
2021/11/03 04:30:58;;;;;;;19.30;16.17;;;;;;;7.75;87.90;97120.58;1838679;78;20876;-60
2021/11/03 04:33:25;;;;;;;20.00;16.80;;;;;;;7.79;87.93;97121.60;1838593;78;20862;-60
2021/11/03 04:35:52;;;;;;;18.52;14.80;;;;;;;7.80;87.85;97121.83;1838594;78;21104;-60
2021/11/03 04:38:19;;;;;;;17.95;14.23;;;;;;;7.76;87.66;97126.17;1838576;78;20984;-58
2021/11/03 04:40:45;;;;;;;19.80;14.68;;;;;;;7.70;87.71;97139.32;1838742;78;20892;-60
2021/11/03 04:43:14;;;;;;;18.37;15.78;;;;;;;7.67;87.83;97131.94;1838416;78;20880;-62
2021/11/03 04:45:41;;;;;;;24.70;15.85;;;;;;;7.65;87.98;97131.44;1842286;77;20932;-58
2021/11/03 04:48:08;;;;;;;56.85;50.78;;;;;;;7.66;88.06;97138.87;1849907;77;21116;-60
2021/11/03 04:50:35;;;;;;;22.25;17.80;;;;;;;7.69;88.04;97145.75;1850167;77;20884;-61
2021/11/03 04:53:02;;;;;;;24.92;17.05;;;;;;;7.68;88.05;97149.48;1849809;77;20884;-59
2021/11/03 04:55:32;;;;;;;21.97;17.42;;;;;;;7.67;88.11;97155.92;1849864;77;21415;-59
2021/11/03 04:58:00;;;;;;;25.68;19.62;;;;;;;7.71;88.15;97158.78;1849720;77;20974;-60
2021/11/03 05:00:29;;;;;;;24.55;19.32;;;;;;;7.67;88.13;97159.92;1849886;77;21725;-61
2021/11/03 05:02:58;;;;;;;20.92;17.50;;;;;;;7.67;88.22;97163.91;1849713;77;20895;-61
2021/11/03 05:05:25;;;;;;;23.50;18.80;;;;;;;7.68;88.13;97167.38;1849983;77;20864;-62
2021/11/03 05:07:54;;;;;;;20.62;16.70;;;;;;;7.63;88.15;97168.22;1849823;77;20932;-58
2021/11/03 05:10:22;;;;;;;23.15;15.63;;;;;;;7.63;88.20;97167.45;1850022;77;21497;-60
2021/11/03 05:12:49;;;;;;;20.68;16.10;;;;;;;7.60;88.29;97167.49;1849678;77;21106;-62
2021/11/03 05:15:16;;;;;;;22.80;16.65;;;;;;;7.61;88.40;97170.95;1849633;77;20868;-55
2021/11/03 05:17:43;;;;;;;21.42;16.73;;;;;;;7.63;88.38;97173.55;1849746;77;20860;-57
2021/11/03 05:20:11;;;;;;;17.82;14.20;;;;;;;7.66;88.36;97179.64;1849665;77;20884;-57
2021/11/03 05:22:38;;;;;;;20.15;15.05;;;;;;;7.65;88.23;97175.41;1849815;77;20849;-55
2021/11/03 05:25:06;;;;;;;24.15;18.37;;;;;;;7.65;88.27;97178.08;1849771;77;21194;-57
2021/11/03 05:27:34;;;;;;;25.30;18.27;;;;;;;7.67;88.34;97187.91;1849597;77;21388;-59
2021/11/03 05:30:01;;;;;;;28.40;20.92;;;;;;;7.71;88.24;97197.43;1849742;77;20939;-59
2021/11/03 05:32:28;;;;;;;21.37;15.50;;;;;;;7.72;88.28;97206.48;1849765;77;20907;-62
2021/11/03 05:34:55;;;;;;;19.92;15.88;;;;;;;7.72;88.12;97213.16;1849788;77;20904;-60
2021/11/03 05:37:22;;;;;;;21.17;16.05;;;;;;;7.70;88.17;97215.86;1849878;77;21132;-61
2021/11/03 05:39:49;;;;;;;19.35;14.50;;;;;;;7.69;88.12;97215.05;1849706;77;20982;-61
2021/11/03 05:42:15;;;;;;;21.45;15.65;;;;;;;7.70;88.13;97218.52;1849736;77;20892;-61
2021/11/03 05:44:42;;;;;;;20.25;14.58;;;;;;;7.71;88.17;97231.55;1849726;77;20904;-60
2021/11/03 05:47:13;;;;;;;18.98;14.60;;;;;;;7.72;88.18;97235.81;1856592;77;21361;-58
2021/11/03 05:49:39;;;;;;;17.95;14.33;;;;;;;7.71;88.05;97237.41;1855780;77;21091;-62
2021/11/03 05:52:07;;;;;;;16.70;14.35;;;;;;;7.68;87.98;97248.11;1858032;77;21450;-62
2021/11/03 05:54:34;;;;;;;24.92;20.62;;;;;;;7.69;87.92;97245.70;1857979;77;20872;-62
2021/11/03 05:57:02;;;;;;;19.23;14.90;;;;;;;7.69;87.96;97243.05;1858103;77;20946;-61
2021/11/03 05:59:29;;;;;;;19.48;13.70;;;;;;;7.69;87.83;97252.91;1858018;77;20998;-59
2021/11/03 06:01:56;;;;;;;15.72;13.20;;;;;;;7.71;87.74;97260.87;1858476;77;21090;-59
2021/11/03 06:04:24;;;;;;;17.32;13.28;;;;;;;7.71;87.49;97260.87;1858004;77;20895;-62
2021/11/03 06:06:51;;;;;;;16.67;12.80;;;;;;;7.72;87.42;97265.66;1858067;77;20931;-62
2021/11/03 06:09:17;;;;;;;15.65;12.18;;;;;;;7.71;87.28;97270.20;1858169;77;20892;-62
2021/11/03 06:11:47;;;;;;;13.40;12.00;;;;;;;7.72;87.13;97275.80;1858187;77;20864;-62
2021/11/03 06:14:13;;;;;;;16.60;12.20;;;;;;;7.73;87.18;97273.36;1857980;77;21139;-58
2021/11/03 06:16:42;;;;;;;16.40;11.88;;;;;;;7.76;86.91;97279.99;1857978;77;21450;-58
2021/11/03 06:19:09;;;;;;;14.55;12.10;;;;;;;7.77;86.53;97283.72;1858286;77;20966;-59
2021/11/03 06:21:35;;;;;;;13.58;11.20;;;;;;;7.77;86.35;97285.59;1857930;77;20915;-61
2021/11/03 06:24:03;;;;;;;14.65;11.10;;;;;;;7.78;85.97;97298.62;1858371;77;21455;-61
2021/11/03 06:26:31;;;;;;;13.72;10.93;;;;;;;7.77;86.00;97295.72;1858054;77;21102;-58
2021/11/03 06:28:58;;;;;;;13.08;11.48;;;;;;;7.79;85.87;97304.75;1857969;77;20821;-57
2021/11/03 06:31:25;;;;;;;13.00;11.03;;;;;;;7.81;86.04;97302.05;1858070;77;20856;-60
2021/11/03 06:33:52;;;;;;;15.43;12.23;;;;;;;7.87;85.68;97307.55;1858050;77;20950;-60
2021/11/03 06:36:19;;;;;;;16.57;13.28;;;;;;;7.88;85.44;97309.15;1857961;77;21501;-61
2021/11/03 06:38:46;;;;;;;13.25;11.33;;;;;;;7.91;85.41;97307.78;1858252;77;21504;-58
2021/11/03 06:41:15;;;;;;;20.97;14.68;;;;;;;7.89;84.90;97309.38;1858206;77;20876;-57
2021/11/03 06:43:44;;;;;;;14.35;12.33;;;;;;;7.89;85.07;97332.05;1858196;77;20995;-59
2021/11/03 06:46:11;;;;;;;24.60;17.52;;;;;;;7.86;85.03;97335.31;1852075;77;20936;-60
2021/11/03 06:48:38;;;;;;;17.42;14.00;;;;;;;7.87;85.20;97327.55;1838428;78;20833;-60
2021/11/03 06:51:04;;;;;;;17.95;12.18;;;;;;;7.90;85.16;97340.31;1838445;78;21327;-58
2021/11/03 06:53:33;;;;;;;14.25;12.10;;;;;;;7.90;85.15;97338.98;1838396;78;20908;-61
2021/11/03 06:56:00;;;;;;;14.95;11.70;;;;;;;7.94;85.21;97346.64;1838416;78;20959;-61
2021/11/03 06:58:30;;;;;;;13.38;11.80;;;;;;;7.97;85.00;97350.08;1838298;78;20941;-61
2021/11/03 07:01:00;;;;;;;14.68;11.35;;;;;;;7.98;85.10;97355.67;1838471;78;21400;-57
2021/11/03 07:03:30;;;;;;;12.43;11.15;;;;;;;8.03;85.11;97351.58;1838437;78;21109;-60
2021/11/03 07:05:57;;;;;;;13.28;11.60;;;;;;;8.08;84.96;97363.51;1838314;78;20865;-56
2021/11/03 07:08:24;;;;;;;15.08;11.85;;;;;;;8.09;84.59;97360.31;1838252;77;21006;-61
2021/11/03 07:10:54;;;;;;;14.83;12.00;;;;;;;8.11;84.54;97361.61;1826643;78;21428;-57
2021/11/03 07:13:22;;;;;;;14.87;12.18;;;;;;;8.10;84.58;97364.58;1831004;78;20928;-58
2021/11/03 07:15:51;;;;;;;14.40;12.47;;;;;;;8.14;84.60;97362.91;1815929;78;20924;-59
2021/11/03 07:18:18;;;;;;;14.87;12.73;;;;;;;8.18;84.58;97361.23;1838386;78;20888;-57
2021/11/03 07:20:45;;;;;;;16.87;12.63;;;;;;;8.21;84.44;97373.47;1837786;78;20975;-60
2021/11/03 07:23:15;;;;;;;16.30;12.23;;;;;;;8.22;84.29;97367.57;1837444;78;20877;-59
2021/11/03 07:25:42;;;;;;;16.23;13.78;;;;;;;8.23;83.98;97381.17;1825511;78;20936;-59
2021/11/03 07:28:09;;;;;;;14.55;12.88;;;;;;;8.23;84.00;97367.30;1832045;78;21073;-61
2021/11/03 07:30:36;;;;;;;16.32;13.68;;;;;;;8.29;84.09;97365.92;1836856;78;21102;-60
2021/11/03 07:33:05;;;;;;;20.68;15.90;;;;;;;8.36;83.99;97371.69;1836995;78;20994;-57
2021/11/03 07:35:32;;;;;;;16.80;14.50;;;;;;;8.44;84.13;97384.35;1838574;78;21423;-60
2021/11/03 07:37:59;;;;;;;14.65;12.93;;;;;;;8.49;83.69;97386.95;1838597;78;20872;-59
2021/11/03 07:40:31;;;;;;;15.80;13.45;;;;;;;8.52;83.64;97383.70;1835184;78;21200;-61
2021/11/03 07:43:00;;;;;;;15.83;13.22;;;;;;;8.55;83.65;97387.91;1809418;78;20912;-60
2021/11/03 07:45:28;;;;;;;14.85;13.18;;;;;;;8.57;82.92;97392.97;1827371;78;20936;-57
2021/11/03 07:47:55;;;;;;;14.60;13.10;;;;;;;8.58;82.99;97391.87;1838752;77;21376;-61
2021/11/03 07:50:25;;;;;;;14.43;12.93;;;;;;;8.63;82.84;97399.80;1771049;80;21023;-60
2021/11/03 07:52:52;;;;;;;13.78;12.43;;;;;;;8.65;82.37;97406.97;1797372;79;21674;-61
2021/11/03 07:55:19;;;;;;;13.53;11.93;;;;;;;8.65;82.27;97408.30;1757181;80;21067;-58
2021/11/03 07:57:47;;;;;;;14.68;12.98;;;;;;;8.69;82.31;97413.34;1768888;80;20929;-58
2021/11/03 08:00:24;;;;;;;15.10;13.43;;;;;;;8.74;82.02;97413.23;1760833;80;21502;-58
2021/11/03 08:02:51;;;;;;;17.20;13.83;;;;;;;8.81;81.73;97420.32;1761006;80;21015;-57
2021/11/03 08:05:17;;;;;;;16.15;14.13;;;;;;;8.89;81.54;97421.00;1773483;80;21126;-57
2021/11/03 08:07:44;;;;;;;16.00;13.20;;;;;;;8.96;81.80;97425.42;1767372;80;20909;-60
2021/11/03 08:10:14;;;;;;;16.32;12.88;;;;;;;9.02;81.36;97437.59;1773072;80;21475;-60
2021/11/03 08:12:42;;;;;;;15.63;13.58;;;;;;;9.06;81.14;97423.92;1767798;80;20932;-58
2021/11/03 08:15:10;;;;;;;14.87;13.38;;;;;;;9.10;80.73;97434.27;1759782;80;21428;-60
2021/11/03 08:17:37;;;;;;;14.18;12.70;;;;;;;9.16;80.72;97431.73;1761976;80;21059;-58
2021/11/03 08:20:07;;;;;;;398.18;367.43;;;;;;;9.23;80.47;97438.83;1776152;80;20975;-57
2021/11/03 08:22:36;;;;;;;192.50;162.15;;;;;;;9.32;80.63;97439.75;1749497;80;20983;-57
2021/11/03 08:25:04;;;;;;;213.57;113.80;;;;;;;9.42;79.80;97447.57;1747936;80;20944;-60
2021/11/03 08:27:32;;;;;;;14.68;12.53;;;;;;;9.48;79.99;97446.94;1750878;80;21022;-59
2021/11/03 08:29:59;;;;;;;13.32;11.93;;;;;;;9.63;79.73;97447.44;1761990;80;21115;-59
2021/11/03 08:32:32;;;;;;;13.55;12.20;;;;;;;9.78;79.33;97449.56;1768527;80;21067;-59
2021/11/03 08:34:59;;;;;;;13.35;11.95;;;;;;;9.94;78.65;97448.97;1768350;80;21079;-57
2021/11/03 08:37:30;;;;;;;13.13;11.78;;;;;;;10.04;77.51;97454.66;1774536;80;20901;-60
2021/11/03 08:39:57;;;;;;;13.55;11.70;;;;;;;10.10;76.80;97456.16;1773696;80;20960;-60
2021/11/03 08:42:23;;;;;;;13.25;10.65;;;;;;;10.15;76.68;97460.09;1728120;80;21126;-60
2021/11/03 08:44:53;;;;;;;11.43;10.32;;;;;;;10.24;76.57;97453.70;1776737;80;20980;-61
2021/11/03 08:47:20;;;;;;;12.98;11.75;;;;;;;10.38;76.11;97455.03;1805311;77;20990;-57
2021/11/03 08:49:47;;;;;;;14.43;12.93;;;;;;;10.50;75.84;97458.52;1784981;79;21356;-58
2021/11/03 08:52:15;;;;;;;13.00;11.05;;;;;;;10.52;75.59;97459.81;1837879;77;20947;-57
2021/11/03 08:54:45;;;;;;;145.97;107.10;;;;;;;10.51;74.22;97463.56;1835743;77;21108;-58
2021/11/03 08:57:11;;;;;;;12.40;10.95;;;;;;;10.45;74.23;97471.48;1843296;77;20962;-57
2021/11/03 08:59:39;;;;;;;10.98;9.85;;;;;;;10.44;74.09;97479.80;1832066;77;20908;-60
2021/11/03 09:02:06;;;;;;;10.60;9.08;;;;;;;10.39;73.87;97467.31;1823349;77;21030;-59
2021/11/03 09:04:35;;;;;;;9.83;8.80;;;;;;;10.35;74.16;97481.06;1829375;77;21030;-62
2021/11/03 09:07:04;;;;;;;10.80;9.70;;;;;;;10.35;74.40;97482.40;1752862;81;21103;-57
2021/11/03 09:09:31;;;;;;;10.58;9.48;;;;;;;10.33;73.97;97476.56;1826383;77;20969;-60
2021/11/03 09:12:02;;;;;;;10.65;9.55;;;;;;;10.27;74.10;97476.41;1841971;77;20856;-57
2021/11/03 09:14:31;;;;;;;11.95;10.30;;;;;;;10.24;74.65;97487.73;1810338;79;20911;-57
2021/11/03 09:16:58;;;;;;;11.45;10.25;;;;;;;10.29;74.46;97479.59;1801048;79;20971;-60
2021/11/03 09:19:25;;;;;;;12.05;10.65;;;;;;;10.45;74.01;97481.39;1801656;79;21943;-59
2021/11/03 09:21:52;;;;;;;10.98;9.88;;;;;;;10.57;73.93;97481.13;1794926;79;21022;-64
2021/11/03 09:24:19;;;;;;;11.83;9.98;;;;;;;10.62;73.24;97478.87;1768323;80;21043;-58
2021/11/03 09:26:46;;;;;;;10.50;9.50;;;;;;;10.69;72.79;97473.32;1758940;79;21491;-59
2021/11/03 09:29:13;;;;;;;10.32;9.13;;;;;;;10.84;72.72;97478.34;1760123;80;21075;-56
2021/11/03 09:31:43;;;;;;;9.78;8.78;;;;;;;10.98;71.68;97479.07;1778673;80;21095;-56
2021/11/03 09:34:09;;;;;;;12.43;9.53;;;;;;;11.05;71.67;97488.56;1753374;80;21509;-62
2021/11/03 09:36:42;;;;;;;12.43;9.08;;;;;;;11.05;71.06;97484.54;1770613;80;21046;-62
2021/11/03 09:39:10;;;;;;;8.68;7.72;;;;;;;11.01;71.55;97488.39;1784440;79;20924;-59
2021/11/03 09:41:51;;;;;;;9.33;8.33;;;;;;;11.00;70.96;97492.95;1762760;80;21521;-57
2021/11/03 09:44:29;;;;;;;10.40;8.13;;;;;;;10.98;70.59;97490.33;1776830;80;21071;-57
2021/11/03 09:47:16;;;;;;;9.00;8.08;;;;;;;11.00;70.97;97495.63;1770681;80;21026;-59
2021/11/03 09:49:58;;;;;;;9.75;8.33;;;;;;;11.12;70.12;97491.60;1752342;81;20901;-58
2021/11/03 09:52:36;;;;;;;9.80;8.05;;;;;;;11.23;69.77;97499.66;1809512;78;21450;-58
2021/11/03 09:55:30;;;;;;;8.75;7.28;;;;;;;11.38;69.39;97501.41;1813927;78;21014;-60
2021/11/03 09:58:19;;;;;;;8.58;7.75;;;;;;;11.53;68.39;97492.98;1804209;79;21118;-60
2021/11/03 10:01:04;;;;;;;16.00;14.38;;;;;;;11.61;67.50;97520.95;1805356;79;20903;-58
2021/11/03 10:03:49;;;;;;;11.35;10.00;;;;;;;11.56;66.71;97507.67;1804123;79;21521;-57
2021/11/03 10:06:41;;;;;;;132.55;71.30;;;;;;;11.49;67.62;97510.00;1804052;79;20971;-61
2021/11/03 10:09:08;;;;;;;145.75;123.45;;;;;;;11.51;67.63;97514.50;1805187;79;21486;-58
2021/11/03 10:11:40;;;;;;;206.75;187.47;;;;;;;11.53;68.00;97512.30;1804844;79;21293;-59
2021/11/03 10:14:08;;;;;;;11.35;9.70;;;;;;;11.56;67.58;97507.67;1804005;79;20999;-61
2021/11/03 10:16:39;;;;;;;11.55;10.43;;;;;;;11.53;67.94;97519.00;1805271;79;20880;-61
2021/11/03 10:19:32;;;;;;;11.78;10.58;;;;;;;11.53;67.97;97510.41;1805513;79;20912;-58
2021/11/03 10:22:07;;;;;;;10.88;7.65;;;;;;;11.60;68.33;97509.97;1805497;79;20872;-59
2021/11/03 10:24:41;;;;;;;9.33;7.97;;;;;;;11.69;68.14;97509.48;1803150;79;21155;-60
2021/11/03 10:27:17;;;;;;;7.80;6.78;;;;;;;11.85;68.29;97521.39;1805638;79;21586;-60
2021/11/03 10:29:56;;;;;;;7.28;5.85;;;;;;;11.98;66.23;97515.16;1806081;79;21400;-55
2021/11/03 10:32:38;;;;;;;7.28;6.05;;;;;;;11.97;64.59;97528.31;1823624;78;20877;-60
2021/11/03 10:35:39;;;;;;;7.05;6.00;;;;;;;11.92;64.48;97523.63;1805720;79;20880;-60
2021/11/03 10:38:14;;;;;;;5.58;4.65;;;;;;;11.93;64.65;97517.97;1794562;78;21108;-58
2021/11/03 10:40:44;;;;;;;;;;;;;;;11.90;63.20;97527.97;1823417;78;20954;-62
2021/11/03 10:43:42;;;;;;;5.30;4.80;;;;;;;11.89;63.63;97543.84;1837321;78;20560;-61
2021/11/03 10:46:27;;;;;;;5.28;4.78;;;;;;;11.97;62.63;97529.66;1837829;78;20928;-57
2021/11/03 10:49:23;;;;;;;;;;;;;;;12.03;61.93;97536.48;1849164;77;21506;-63
2021/11/03 10:52:11;;;;;;;7.75;5.65;;;;;;;12.08;62.21;97539.58;1848206;77;21160;-60
2021/11/03 10:54:56;;;;;;;5.62;4.85;;;;;;;12.15;62.31;97541.27;1810484;77;20837;-61
2021/11/03 10:57:38;;;;;;;6.12;5.53;;;;;;;12.28;61.88;97539.01;1839058;77;20923;-58
2021/11/03 11:00:33;;;;;;;6.08;5.28;;;;;;;12.41;61.26;97544.03;1848888;77;20868;-58
2021/11/03 11:03:13;;;;;;;5.00;4.50;;;;;;;12.49;61.09;97541.90;1844746;77;21759;-57
2021/11/03 11:05:48;;;;;;;5.92;4.92;;;;;;;12.52;61.43;97546.11;1813787;78;21067;-58
2021/11/03 11:08:26;;;;;;;4.72;4.33;;;;;;;12.68;61.30;97542.41;1815767;78;20892;-58
2021/11/03 11:11:19;;;;;;;;;;;;;;;;;;;;;
2021/11/03 11:13:37;;;;;;;5.20;4.53;;;;;;;12.92;59.48;97550.27;1812116;78;20848;-59
2021/11/03 11:16:20;;;;;;;4.47;3.90;;;;;;;12.99;59.14;97555.17;1824995;77;20919;-60
2021/11/03 11:18:54;;;;;;;4.58;4.12;;;;;;;13.02;58.55;97552.63;1843565;77;21316;-60
2021/11/03 11:21:49;;;;;;;6.03;4.67;;;;;;;13.15;58.82;97558.20;1848184;77;20984;-59
2021/11/03 11:24:27;;;;;;;4.83;4.37;;;;;;;13.34;57.75;97562.70;1765134;81;21001;-59
2021/11/03 11:27:06;;;;;;;4.90;4.40;;;;;;;13.38;57.60;97567.13;1836186;77;21435;-58
2021/11/03 11:29:41;;;;;;;4.78;4.17;;;;;;;13.35;56.50;97560.27;1763021;81;21068;-59
2021/11/03 11:32:26;;;;;;;4.62;4.00;;;;;;;13.28;56.93;97554.02;1837692;77;27099;-62
2021/11/03 11:35:07;;;;;;;5.00;4.50;;;;;;;13.31;57.34;97552.58;1817261;77;20984;-57
2021/11/03 11:37:45;;;;;;;4.78;4.25;;;;;;;13.41;57.02;97554.39;1835901;77;21006;-61
2021/11/03 11:40:50;;;;;;;6.05;4.42;;;;;;;13.49;57.23;97567.06;1816168;78;20924;-62
2021/11/03 11:43:32;;;;;;;5.53;3.70;;;;;;;13.58;57.22;97564.34;1815902;79;20880;-58
2021/11/03 11:46:18;;;;;;;9.03;4.05;;;;;;;13.67;56.00;97576.67;1815800;78;21526;-60